METAR Data
IDs: Format: Raw Decoded Include TAF

Data at: 1455 UTC 25 Jan 2020

METAR for:KAMW (Ames Muni, IA, US)
Text:KAMW 251415Z AUTO 30010KT 10SM SCT015 OVC031 M02/M04 A3001 RMK AO2 T10171039
Temperature: -1.7°C ( 29°F)
Dewpoint: -3.9°C ( 25°F) [RH = 85%]
Pressure (altimeter):30.01 inches Hg (1016.3 mb)
Winds:from the WNW (300 degrees) at 12 MPH (10 knots; 5.1 m/s)
Visibility:10 or more sm (16+ km)
Ceiling:3100 feet AGL
Clouds: scattered clouds at 1500 feet AGL, overcast cloud deck at 3100 feet AGL
QC Flag:automated observation with no human augmentation